Time;durP1;ratioP1;P1;durP2;ratioP2;P2;SDS_P1;SDS_P2;PMS_P1;PMS_P2;Temp;Humidity;BMP_temperature;BMP_pressure;BME280_temperature;BME280_humidity;BME280_pressure;Samples;Min_cycle;Max_cycle;Signal;HPM_P1;HPM_P2
2022/08/23 07:29:57;;;;;;;2.20;2.00;;;;;;;;;;6281049;22;21139;31
2022/08/23 07:59:47;;;;;;;2.50;2.30;;;;;;;;;;6304203;22;20087;-76
2022/08/23 08:02:14;;;;;;;5.60;2.38;;;;;;;;;;6307748;22;20092;-76
2022/08/23 08:04:39;;;;;;;2.10;1.90;;;;;;;;;;6308182;22;20062;-76
2022/08/23 08:07:05;;;;;;;2.20;2.00;;;;;;;;;;6309309;22;20300;-75
2022/08/23 08:09:30;;;;;;;2.65;1.88;;;;;;;;;;6309806;22;19999;-79
2022/08/23 08:11:56;;;;;;;2.42;2.22;;;;;;;;;;6310124;22;20010;-76
2022/08/23 08:14:21;;;;;;;4.47;2.42;;;;;;;;;;6309826;22;20418;-78
2022/08/23 08:16:49;;;;;;;2.53;1.90;;;;;;;;;;6309445;22;20030;-76
2022/08/23 08:19:16;;;;;;;2.25;2.00;;;;;;;;;;6309978;22;20368;-77
2022/08/23 08:21:44;;;;;;;2.50;2.05;;;;;;;;;;6307933;22;20003;-75
2022/08/23 08:24:12;;;;;;;2.22;1.90;;;;;;;;;;6309763;22;20074;-76
2022/08/23 08:26:38;;;;;;;4.03;2.08;;;;;;;;;;6309478;22;19999;-78
2022/08/23 08:29:05;;;;;;;2.45;2.00;;;;;;;;;;6309584;22;19999;-79
2022/08/23 08:31:30;;;;;;;2.42;2.22;;;;;;;;;;6309343;22;20074;-78
2022/08/23 08:33:56;;;;;;;2.88;2.03;;;;;;;;;;6309555;22;20100;-78
2022/08/23 08:36:31;;;;;;;1.95;1.85;;;;;;;;;;6309126;22;20010;-78
2022/08/23 08:38:57;;;;;;;2.50;2.30;;;;;;;;;;6309463;22;20373;-79
2022/08/23 08:41:50;;;;;;;2.22;1.88;;;;;;;;;;6309592;22;20003;-77
2022/08/23 08:44:37;;;;;;;2.53;1.88;;;;;;;;;;6309547;22;20078;-79
2022/08/23 08:47:18;;;;;;;2.42;1.95;;;;;;;;;;6309781;22;20303;-77
2022/08/23 08:50:04;;;;;;;4.00;1.90;;;;;;;;;;6307817;22;20005;-77
2022/08/23 08:52:34;;;;;;;2.70;1.85;;;;;;;;;;6292847;22;20448;-78
2022/08/23 08:55:05;;;;;;;1.88;1.77;;;;;;;;;;6309360;22;19999;-79
2022/08/23 08:57:38;;;;;;;2.38;1.98;;;;;;;;;;6309576;22;20003;-78
2022/08/23 09:00:26;;;;;;;2.08;1.98;;;;;;;;;;6329689;22;20055;-77
2022/08/23 09:02:54;;;;;;;3.03;1.95;;;;;;;;;;6339694;22;20345;-79
2022/08/23 09:05:27;;;;;;;2.50;1.85;;;;;;;;;;6340319;22;20011;-77
2022/08/23 09:08:12;;;;;;;3.47;2.03;;;;;;;;;;6340579;22;20074;-84
2022/08/23 09:11:07;;;;;;;2.35;1.75;;;;;;;;;;6340150;22;20451;-79
2022/08/23 09:14:02;;;;;;;2.15;1.77;;;;;;;;;;6319200;22;20007;-81
2022/08/23 09:16:41;;;;;;;2.45;1.90;;;;;;;;;;6340036;22;20009;-80
2022/08/23 09:19:06;;;;;;;;;;;;;;;;;;6340860;22;19995;-78
2022/08/23 09:21:58;;;;;;;1.80;1.70;;;;;;;;;;6339993;22;19929;-78
2022/08/23 09:24:25;;;;;;;2.17;1.95;;;;;;;;;;6339332;22;20425;-77
2022/08/23 09:26:53;;;;;;;2.25;2.10;;;;;;;;;;6338576;22;20306;-80
2022/08/23 09:29:23;;;;;;;2.35;1.70;;;;;;;;;;6340349;22;20429;-77
2022/08/23 09:32:04;;;;;;;2.13;1.90;;;;;;;;;;6340146;22;20429;-76
2022/08/23 09:34:35;;;;;;;2.08;1.73;;;;;;;;;;6340785;22;19994;-80
2022/08/23 09:37:07;;;;;;;2.65;1.67;;;;;;;;;;6339959;22;20470;-77
2022/08/23 09:39:36;;;;;;;1.85;1.73;;;;;;;;;;6340010;22;19994;-77
2022/08/23 09:42:02;;;;;;;1.90;1.70;;;;;;;;;;6340082;22;20056;-81
2022/08/23 09:44:35;;;;;;;1.63;1.52;;;;;;;;;;6339932;22;19998;-79
2022/08/23 09:47:05;;;;;;;2.63;1.92;;;;;;;;;;6339745;22;20428;-78
2022/08/23 09:49:31;;;;;;;4.03;1.77;;;;;;;;;;6339966;22;19994;-78
2022/08/23 09:52:11;;;;;;;1.70;1.60;;;;;;;;;;6340295;22;20002;-78
2022/08/23 09:54:40;;;;;;;1.92;1.75;;;;;;;;;;6339932;22;20010;-80
2022/08/23 09:57:09;;;;;;;2.55;1.73;;;;;;;;;;6339833;22;20007;-77
2022/08/23 09:59:43;;;;;;;2.13;1.63;;;;;;;;;;6339967;22;20021;-78
2022/08/23 10:02:16;;;;;;;4.70;1.65;;;;;;;;;;6339865;22;20052;-77
2022/08/23 10:05:01;;;;;;;2.40;1.83;;;;;;;;;;6339760;22;20003;-77
2022/08/23 10:07:37;;;;;;;3.05;2.03;;;;;;;;;;6339790;22;20440;-78
2022/08/23 10:10:45;;;;;;;2.75;1.98;;;;;;;;;;6339993;22;20001;-75
2022/08/23 10:13:11;;;;;;;4.07;1.73;;;;;;;;;;6323845;22;20389;-80
2022/08/23 10:15:52;;;;;;;4.43;1.90;;;;;;;;;;6339575;22;20002;-79
2022/08/23 10:18:34;;;;;;;2.75;2.55;;;;;;;;;;6339963;22;20394;-75
2022/08/23 10:21:02;;;;;;;1.90;1.70;;;;;;;;;;6339875;22;20010;-77
2022/08/23 10:23:50;;;;;;;2.30;1.70;;;;;;;;;;6339876;22;20002;-78
2022/08/23 10:26:28;;;;;;;3.08;2.20;;;;;;;;;;6339786;22;20007;-75
2022/08/23 10:29:36;;;;;;;3.08;1.92;;;;;;;;;;6340760;22;20003;-76
2022/08/23 10:32:32;;;;;;;3.55;1.90;;;;;;;;;;6339647;22;20079;-78
2022/08/23 10:35:34;;;;;;;5.72;2.22;;;;;;;;;;6339630;22;20082;-79
2022/08/23 10:38:18;;;;;;;3.20;1.80;;;;;;;;;;6339677;22;20330;-78
2022/08/23 10:40:47;;;;;;;2.55;1.50;;;;;;;;;;6339837;22;20071;-78
2022/08/23 10:43:24;;;;;;;1.60;1.50;;;;;;;;;;6339821;22;20417;-81
2022/08/23 10:45:50;;;;;;;15.70;5.05;;;;;;;;;;6339428;22;20010;-79
2022/08/23 10:48:27;;;;;;;3.03;1.92;;;;;;;;;;6339594;22;20299;-76
2022/08/23 10:50:56;;;;;;;2.13;1.60;;;;;;;;;;6339589;22;20003;-78
2022/08/23 10:53:32;;;;;;;1.80;1.48;;;;;;;;;;6339601;22;20026;-79
2022/08/23 10:56:05;;;;;;;3.15;1.35;;;;;;;;;;6339263;22;20007;-77
2022/08/23 10:58:51;;;;;;;4.07;1.75;;;;;;;;;;6339035;22;20006;-75
2022/08/23 11:01:44;;;;;;;3.20;2.15;;;;;;;;;;6339354;22;20031;-78
2022/08/23 11:04:29;;;;;;;5.15;2.20;;;;;;;;;;6283199;22;20003;-79
2022/08/23 11:06:57;;;;;;;1.92;1.83;;;;;;;;;;6339273;22;20368;-78
2022/08/23 11:09:23;;;;;;;4.05;1.90;;;;;;;;;;6339497;22;20002;-77
2022/08/23 11:12:13;;;;;;;2.53;1.50;;;;;;;;;;6339383;22;20483;-75
2022/08/23 11:14:46;;;;;;;3.13;1.90;;;;;;;;;;6339595;22;20060;-75
2022/08/23 11:17:36;;;;;;;2.83;2.05;;;;;;;;;;6339544;22;20007;-76
2022/08/23 11:20:08;;;;;;;1.65;1.55;;;;;;;;;;6339521;22;19999;-77
2022/08/23 11:22:57;;;;;;;3.22;1.77;;;;;;;;;;6339146;22;20374;-76
2022/08/23 11:25:22;;;;;;;2.05;1.80;;;;;;;;;;6338757;22;20034;-81
2022/08/23 11:27:48;;;;;;;2.42;2.03;;;;;;;;;;6339120;22;20056;-79
2022/08/23 11:30:31;;;;;;;4.57;2.03;;;;;;;;;;6338996;22;19995;-75
2022/08/23 11:33:07;;;;;;;2.03;1.77;;;;;;;;;;6339230;22;20049;-77
2022/08/23 11:35:43;;;;;;;3.67;2.30;;;;;;;;;;6338887;22;20418;-79
2022/08/23 11:38:10;;;;;;;2.75;2.15;;;;;;;;;;6339533;22;19998;-79
2022/08/23 11:40:57;;;;;;;4.30;1.98;;;;;;;;;;6340509;22;20005;-78
2022/08/23 11:43:37;;;;;;;5.50;1.92;;;;;;;;;;6341250;22;20448;-76
2022/08/23 11:46:26;;;;;;;3.83;2.00;;;;;;;;;;6340947;22;20448;-75
2022/08/23 20:18:39;;;;;;;2.55;1.48;;;;;;;;;;6107463;22;2362888;-78
2022/08/23 20:21:05;;;;;;;1.83;1.60;;;;;;;;;;6188473;23;20020;-81
2022/08/23 20:26:15;;;;;;;2.85;1.52;;;;;;;;;;6159222;23;20015;-83
2022/08/23 20:28:40;;;;;;;3.15;1.70;;;;;;;;;;6159841;23;20057;-75
2022/08/23 20:31:21;;;;;;;4.32;1.92;;;;;;;;;;6162014;23;20012;-89
2022/08/23 20:33:47;;;;;;;3.95;1.80;;;;;;;;;;6162780;23;20012;-84
2022/08/23 20:36:13;;;;;;;2.75;1.70;;;;;;;;;;6161743;23;20009;-81
2022/08/23 20:38:39;;;;;;;2.97;1.48;;;;;;;;;;6162632;23;20464;-83
2022/08/23 20:41:04;;;;;;;3.10;2.20;;;;;;;;;;6162160;23;20033;-84
2022/08/23 20:43:31;;;;;;;2.20;1.73;;;;;;;;;;6159289;23;20088;-79
2022/08/23 20:45:57;;;;;;;2.15;1.73;;;;;;;;;;6157779;23;20009;-84
2022/08/23 20:48:22;;;;;;;2.45;1.95;;;;;;;;;;6157434;23;20033;-79
2022/08/23 20:50:48;;;;;;;1.90;1.70;;;;;;;;;;6157263;23;20491;-83
2022/08/23 20:53:14;;;;;;;2.80;1.73;;;;;;;;;;6131644;23;20012;-77
2022/08/23 20:55:40;;;;;;;1.42;1.33;;;;;;;;;;6157520;23;20302;-82
2022/08/23 20:58:05;;;;;;;4.00;1.40;;;;;;;;;;6158204;23;20417;-82
2022/08/23 21:00:31;;;;;;;1.60;1.50;;;;;;;;;;6157942;23;20005;-82
2022/08/23 21:02:56;;;;;;;2.55;1.30;;;;;;;;;;6157653;23;20006;-83
2022/08/23 21:05:22;;;;;;;1.65;1.52;;;;;;;;;;6157001;23;20079;-83
2022/08/23 21:07:47;;;;;;;1.75;1.30;;;;;;;;;;6157294;23;20005;-81
2022/08/23 21:10:13;;;;;;;1.77;1.35;;;;;;;;;;6157084;23;20005;-81
2022/08/23 21:12:38;;;;;;;1.55;1.40;;;;;;;;;;6156940;23;20073;-87
2022/08/23 21:15:05;;;;;;;1.88;1.77;;;;;;;;;;6156956;23;20006;-87
2022/08/23 21:17:30;;;;;;;2.55;1.90;;;;;;;;;;6156539;23;20017;-86
2022/08/23 21:19:56;;;;;;;1.98;1.58;;;;;;;;;;6156879;23;20005;-87
2022/08/23 21:22:21;;;;;;;3.33;1.90;;;;;;;;;;6157197;23;20002;-85
2022/08/23 21:24:47;;;;;;;2.05;1.50;;;;;;;;;;6156733;23;20005;-82
2022/08/23 21:27:12;;;;;;;2.67;1.70;;;;;;;;;;6156834;23;20010;-88
2022/08/23 21:29:38;;;;;;;1.77;1.42;;;;;;;;;;6156564;23;20077;-79
2022/08/23 21:32:04;;;;;;;2.00;1.60;;;;;;;;;;6156606;23;20080;-80
2022/08/23 21:34:29;;;;;;;2.67;1.60;;;;;;;;;;6131108;23;20005;-85
2022/08/23 21:36:55;;;;;;;1.73;1.38;;;;;;;;;;6130524;23;20013;-87
2022/08/23 21:39:20;;;;;;;1.88;1.73;;;;;;;;;;6156797;23;20001;-77
2022/08/23 21:41:49;;;;;;;4.60;3.50;;;;;;;;;;6156940;23;20421;-80
2022/08/23 21:44:19;;;;;;;;;;;;;;;;;;6156908;23;20013;-85
2022/08/23 21:46:46;;;;;;;4.15;3.45;;;;;;;;;;6156360;23;19939;-87
2022/08/23 21:49:13;;;;;;;2.03;1.85;;;;;;;;;;6156435;23;20051;-83
2022/08/23 21:51:39;;;;;;;2.00;1.70;;;;;;;;;;6156866;23;20077;-87
2022/08/23 21:54:07;;;;;;;2.38;1.60;;;;;;;;;;6156505;23;19997;-85
2022/08/23 21:56:34;;;;;;;1.90;1.80;;;;;;;;;;6130328;23;20016;-78
2022/08/23 21:59:01;;;;;;;1.60;1.50;;;;;;;;;;6157036;23;20008;-86
2022/08/23 22:01:27;;;;;;;2.08;1.75;;;;;;;;;;6156468;23;20005;-82
2022/08/23 22:03:53;;;;;;;1.95;1.63;;;;;;;;;;6156790;23;20006;-87
2022/08/23 22:06:18;;;;;;;2.00;1.80;;;;;;;;;;6156701;23;20077;-83
2022/08/23 22:08:44;;;;;;;3.75;1.80;;;;;;;;;;6156385;23;20053;-85
2022/08/23 22:11:12;;;;;;;2.38;1.70;;;;;;;;;;6156537;23;20009;-87
2022/08/23 22:13:38;;;;;;;1.80;1.70;;;;;;;;;;6130186;23;20002;-86
2022/08/23 22:16:05;;;;;;;1.75;1.50;;;;;;;;;;6156341;23;20014;-84
2022/08/23 22:18:32;;;;;;;2.92;2.00;;;;;;;;;;6156146;23;20009;-85
2022/08/23 22:20:58;;;;;;;2.30;2.00;;;;;;;;;;6156610;23;20076;-85
2022/08/23 22:23:29;;;;;;;1.92;1.75;;;;;;;;;;6156652;23;20056;-86
2022/08/23 22:26:05;;;;;;;3.10;2.03;;;;;;;;;;6156485;23;20010;-80
2022/08/23 22:28:31;;;;;;;2.13;1.95;;;;;;;;;;6156501;23;20001;-86
2022/08/23 22:30:59;;;;;;;3.47;1.65;;;;;;;;;;6156505;23;20033;-89
2022/08/23 22:33:25;;;;;;;3.85;2.00;;;;;;;;;;6156886;23;20425;-86
2022/08/23 22:35:51;;;;;;;2.05;1.85;;;;;;;;;;6156422;23;20001;-85
2022/08/23 22:38:17;;;;;;;2.10;1.90;;;;;;;;;;6156733;23;20390;-84
2022/08/23 22:40:50;;;;;;;3.08;1.73;;;;;;;;;;6156460;23;20028;-75
2022/08/23 22:43:17;;;;;;;2.00;1.80;;;;;;;;;;6156263;23;20010;-84
2022/08/23 22:45:56;;;;;;;2.50;1.70;;;;;;;;;;6156354;23;20428;-82
2022/08/23 22:48:22;;;;;;;1.80;1.70;;;;;;;;;;6156324;23;20005;-86
2022/08/23 22:50:47;;;;;;;1.98;1.70;;;;;;;;;;6156322;23;20365;-85
2022/08/23 22:53:14;;;;;;;2.40;1.92;;;;;;;;;;6156345;23;20022;-81
2022/08/23 22:55:40;;;;;;;1.60;1.50;;;;;;;;;;6155884;23;20439;-89
2022/08/23 22:58:07;;;;;;;2.10;1.90;;;;;;;;;;6157352;23;20056;-81
